sensor_id;sensor_type;location;lat;lon;timestamp;P1;durP1;ratioP1;P2;durP2;ratioP2
31424;SDS011;18054;51.572;7.372;2024-01-30T00:01:08;11.48;;;6.78;;
31424;SDS011;18054;51.572;7.372;2024-01-30T00:03:36;14.40;;;6.07;;
31424;SDS011;18054;51.572;7.372;2024-01-30T00:06:04;14.55;;;7.32;;
31424;SDS011;18054;51.572;7.372;2024-01-30T00:08:32;15.45;;;6.60;;
31424;SDS011;18054;51.572;7.372;2024-01-30T00:11:00;11.73;;;7.07;;
31424;SDS011;18054;51.572;7.372;2024-01-30T00:13:29;13.25;;;6.82;;
31424;SDS011;18054;51.572;7.372;2024-01-30T00:15:57;21.85;;;7.82;;
31424;SDS011;18054;51.572;7.372;2024-01-30T00:18:25;12.50;;;6.95;;
31424;SDS011;18054;51.572;7.372;2024-01-30T00:23:20;11.63;;;6.63;;
31424;SDS011;18054;51.572;7.372;2024-01-30T00:25:48;17.98;;;7.97;;
31424;SDS011;18054;51.572;7.372;2024-01-30T00:30:45;14.40;;;6.50;;
31424;SDS011;18054;51.572;7.372;2024-01-30T00:33:13;12.45;;;6.70;;
31424;SDS011;18054;51.572;7.372;2024-01-30T00:35:41;13.25;;;7.13;;
31424;SDS011;18054;51.572;7.372;2024-01-30T00:38:10;16.40;;;7.28;;
31424;SDS011;18054;51.572;7.372;2024-01-30T00:40:37;15.85;;;7.75;;
31424;SDS011;18054;51.572;7.372;2024-01-30T00:43:05;13.32;;;7.40;;
31424;SDS011;18054;51.572;7.372;2024-01-30T00:45:33;16.17;;;7.78;;
31424;SDS011;18054;51.572;7.372;2024-01-30T00:48:03;14.98;;;7.32;;
31424;SDS011;18054;51.572;7.372;2024-01-30T00:50:31;15.93;;;8.23;;
31424;SDS011;18054;51.572;7.372;2024-01-30T00:52:59;15.57;;;7.55;;
31424;SDS011;18054;51.572;7.372;2024-01-30T00:55:27;14.95;;;8.25;;
31424;SDS011;18054;51.572;7.372;2024-01-30T00:57:55;17.70;;;7.60;;
31424;SDS011;18054;51.572;7.372;2024-01-30T01:02:34;16.60;;;8.65;;
31424;SDS011;18054;51.572;7.372;2024-01-30T01:05:02;13.40;;;7.63;;
31424;SDS011;18054;51.572;7.372;2024-01-30T01:07:31;14.73;;;7.32;;
31424;SDS011;18054;51.572;7.372;2024-01-30T01:09:58;17.13;;;8.10;;
31424;SDS011;18054;51.572;7.372;2024-01-30T01:12:26;17.48;;;8.60;;
31424;SDS011;18054;51.572;7.372;2024-01-30T01:14:53;12.93;;;6.93;;
31424;SDS011;18054;51.572;7.372;2024-01-30T01:17:21;17.77;;;8.23;;
31424;SDS011;18054;51.572;7.372;2024-01-30T01:19:50;16.63;;;7.05;;
31424;SDS011;18054;51.572;7.372;2024-01-30T01:22:17;17.58;;;8.52;;
31424;SDS011;18054;51.572;7.372;2024-01-30T01:24:45;12.60;;;7.70;;
31424;SDS011;18054;51.572;7.372;2024-01-30T01:27:12;13.77;;;7.63;;
31424;SDS011;18054;51.572;7.372;2024-01-30T01:29:40;13.70;;;8.18;;
31424;SDS011;18054;51.572;7.372;2024-01-30T01:32:07;14.57;;;7.55;;
31424;SDS011;18054;51.572;7.372;2024-01-30T01:34:35;16.35;;;7.90;;
31424;SDS011;18054;51.572;7.372;2024-01-30T01:37:04;18.35;;;8.23;;
31424;SDS011;18054;51.572;7.372;2024-01-30T01:39:32;16.30;;;7.25;;
31424;SDS011;18054;51.572;7.372;2024-01-30T01:41:59;21.02;;;7.40;;
31424;SDS011;18054;51.572;7.372;2024-01-30T01:44:27;16.27;;;8.07;;
31424;SDS011;18054;51.572;7.372;2024-01-30T01:46:54;14.18;;;8.57;;
31424;SDS011;18054;51.572;7.372;2024-01-30T01:54:19;15.35;;;8.00;;
31424;SDS011;18054;51.572;7.372;2024-01-30T01:56:47;19.85;;;8.38;;
31424;SDS011;18054;51.572;7.372;2024-01-30T01:59:15;14.27;;;8.10;;
31424;SDS011;18054;51.572;7.372;2024-01-30T02:04:12;16.90;;;8.82;;
31424;SDS011;18054;51.572;7.372;2024-01-30T02:06:39;15.25;;;7.50;;
31424;SDS011;18054;51.572;7.372;2024-01-30T02:09:07;15.57;;;8.13;;
31424;SDS011;18054;51.572;7.372;2024-01-30T02:11:36;12.80;;;7.32;;
31424;SDS011;18054;51.572;7.372;2024-01-30T02:14:04;13.95;;;8.15;;
31424;SDS011;18054;51.572;7.372;2024-01-30T02:16:32;21.63;;;7.82;;
31424;SDS011;18054;51.572;7.372;2024-01-30T02:18:59;20.67;;;9.00;;
31424;SDS011;18054;51.572;7.372;2024-01-30T02:21:28;19.75;;;8.20;;
31424;SDS011;18054;51.572;7.372;2024-01-30T02:23:56;15.55;;;7.70;;
31424;SDS011;18054;51.572;7.372;2024-01-30T02:26:24;17.13;;;7.70;;
31424;SDS011;18054;51.572;7.372;2024-01-30T02:28:52;19.00;;;8.00;;
31424;SDS011;18054;51.572;7.372;2024-01-30T02:31:19;16.20;;;8.30;;
31424;SDS011;18054;51.572;7.372;2024-01-30T02:33:47;17.58;;;7.70;;
31424;SDS011;18054;51.572;7.372;2024-01-30T02:36:15;20.42;;;8.02;;
31424;SDS011;18054;51.572;7.372;2024-01-30T02:41:11;22.27;;;8.55;;
31424;SDS011;18054;51.572;7.372;2024-01-30T02:43:39;12.55;;;7.38;;
31424;SDS011;18054;51.572;7.372;2024-01-30T02:46:06;17.30;;;8.13;;
31424;SDS011;18054;51.572;7.372;2024-01-30T02:48:34;17.77;;;7.95;;
31424;SDS011;18054;51.572;7.372;2024-01-30T02:51:01;17.90;;;7.80;;
31424;SDS011;18054;51.572;7.372;2024-01-30T02:53:29;16.27;;;8.18;;
31424;SDS011;18054;51.572;7.372;2024-01-30T02:55:56;17.10;;;8.20;;
31424;SDS011;18054;51.572;7.372;2024-01-30T02:58:25;17.10;;;8.13;;
31424;SDS011;18054;51.572;7.372;2024-01-30T03:00:53;15.10;;;7.82;;
31424;SDS011;18054;51.572;7.372;2024-01-30T03:03:21;14.75;;;7.75;;
31424;SDS011;18054;51.572;7.372;2024-01-30T03:05:48;15.10;;;7.72;;
31424;SDS011;18054;51.572;7.372;2024-01-30T03:08:16;12.10;;;7.20;;
31424;SDS011;18054;51.572;7.372;2024-01-30T03:10:44;17.00;;;9.20;;
31424;SDS011;18054;51.572;7.372;2024-01-30T03:13:11;16.17;;;7.78;;
31424;SDS011;18054;51.572;7.372;2024-01-30T03:15:40;15.27;;;7.65;;
31424;SDS011;18054;51.572;7.372;2024-01-30T03:18:08;15.40;;;7.65;;
31424;SDS011;18054;51.572;7.372;2024-01-30T03:20:35;16.42;;;7.45;;
31424;SDS011;18054;51.572;7.372;2024-01-30T03:23:03;17.13;;;7.40;;
31424;SDS011;18054;51.572;7.372;2024-01-30T03:25:30;15.55;;;7.22;;
31424;SDS011;18054;51.572;7.372;2024-01-30T03:27:58;16.05;;;7.40;;
31424;SDS011;18054;51.572;7.372;2024-01-30T03:30:25;17.35;;;8.45;;
31424;SDS011;18054;51.572;7.372;2024-01-30T03:32:54;17.88;;;7.32;;
31424;SDS011;18054;51.572;7.372;2024-01-30T03:35:22;18.60;;;7.70;;
31424;SDS011;18054;51.572;7.372;2024-01-30T03:37:49;25.10;;;8.10;;
31424;SDS011;18054;51.572;7.372;2024-01-30T03:40:17;15.48;;;6.93;;
31424;SDS011;18054;51.572;7.372;2024-01-30T03:42:44;12.80;;;7.65;;
31424;SDS011;18054;51.572;7.372;2024-01-30T03:45:12;19.63;;;7.55;;
31424;SDS011;18054;51.572;7.372;2024-01-30T03:47:39;13.60;;;7.28;;
31424;SDS011;18054;51.572;7.372;2024-01-30T03:50:08;15.90;;;6.85;;
31424;SDS011;18054;51.572;7.372;2024-01-30T03:52:36;20.27;;;6.57;;
31424;SDS011;18054;51.572;7.372;2024-01-30T03:55:04;15.65;;;8.27;;
31424;SDS011;18054;51.572;7.372;2024-01-30T03:57:32;16.08;;;6.63;;
31424;SDS011;18054;51.572;7.372;2024-01-30T03:59:59;19.35;;;8.00;;
31424;SDS011;18054;51.572;7.372;2024-01-30T04:02:37;22.27;;;7.85;;
31424;SDS011;18054;51.572;7.372;2024-01-30T04:05:05;10.63;;;6.40;;
31424;SDS011;18054;51.572;7.372;2024-01-30T04:07:34;14.13;;;6.95;;
31424;SDS011;18054;51.572;7.372;2024-01-30T04:10:02;22.02;;;9.20;;
31424;SDS011;18054;51.572;7.372;2024-01-30T04:12:32;16.88;;;7.32;;
31424;SDS011;18054;51.572;7.372;2024-01-30T04:14:59;21.05;;;7.30;;
31424;SDS011;18054;51.572;7.372;2024-01-30T04:17:27;13.70;;;6.57;;
31424;SDS011;18054;51.572;7.372;2024-01-30T04:19:55;14.82;;;7.47;;
31424;SDS011;18054;51.572;7.372;2024-01-30T04:22:23;15.02;;;6.82;;
31424;SDS011;18054;51.572;7.372;2024-01-30T04:24:52;12.98;;;6.43;;
31424;SDS011;18054;51.572;7.372;2024-01-30T04:27:19;12.25;;;6.43;;
31424;SDS011;18054;51.572;7.372;2024-01-30T04:29:47;14.40;;;7.53;;
31424;SDS011;18054;51.572;7.372;2024-01-30T04:32:14;11.48;;;6.28;;
31424;SDS011;18054;51.572;7.372;2024-01-30T04:34:42;13.90;;;6.80;;
31424;SDS011;18054;51.572;7.372;2024-01-30T04:37:10;14.73;;;7.70;;
31424;SDS011;18054;51.572;7.372;2024-01-30T04:39:37;15.32;;;7.40;;
31424;SDS011;18054;51.572;7.372;2024-01-30T04:42:06;15.35;;;7.03;;
31424;SDS011;18054;51.572;7.372;2024-01-30T04:44:35;16.67;;;7.10;;
31424;SDS011;18054;51.572;7.372;2024-01-30T04:47:03;14.07;;;6.90;;
31424;SDS011;18054;51.572;7.372;2024-01-30T04:49:32;14.90;;;7.28;;
31424;SDS011;18054;51.572;7.372;2024-01-30T04:54:27;17.48;;;6.68;;
31424;SDS011;18054;51.572;7.372;2024-01-30T04:56:55;12.88;;;6.20;;
31424;SDS011;18054;51.572;7.372;2024-01-30T04:59:23;14.05;;;6.88;;
31424;SDS011;18054;51.572;7.372;2024-01-30T05:01:51;12.50;;;6.70;;
31424;SDS011;18054;51.572;7.372;2024-01-30T05:04:18;12.85;;;7.43;;
31424;SDS011;18054;51.572;7.372;2024-01-30T05:06:46;13.88;;;6.85;;
31424;SDS011;18054;51.572;7.372;2024-01-30T05:09:14;17.48;;;7.32;;
31424;SDS011;18054;51.572;7.372;2024-01-30T05:11:41;12.45;;;7.50;;
31424;SDS011;18054;51.572;7.372;2024-01-30T05:14:09;11.88;;;6.53;;
31424;SDS011;18054;51.572;7.372;2024-01-30T05:16:38;14.55;;;6.32;;
31424;SDS011;18054;51.572;7.372;2024-01-30T05:19:06;11.85;;;6.75;;
31424;SDS011;18054;51.572;7.372;2024-01-30T05:21:34;14.77;;;6.68;;
31424;SDS011;18054;51.572;7.372;2024-01-30T05:24:01;16.20;;;6.97;;
31424;SDS011;18054;51.572;7.372;2024-01-30T05:26:29;19.63;;;6.97;;
31424;SDS011;18054;51.572;7.372;2024-01-30T05:28:57;11.13;;;6.55;;
31424;SDS011;18054;51.572;7.372;2024-01-30T05:31:27;12.57;;;7.22;;
31424;SDS011;18054;51.572;7.372;2024-01-30T05:36:24;12.45;;;5.85;;
31424;SDS011;18054;51.572;7.372;2024-01-30T05:38:51;13.43;;;6.60;;
31424;SDS011;18054;51.572;7.372;2024-01-30T05:41:19;13.75;;;6.85;;
31424;SDS011;18054;51.572;7.372;2024-01-30T05:43:47;14.40;;;7.28;;
31424;SDS011;18054;51.572;7.372;2024-01-30T05:46:14;14.60;;;7.03;;
31424;SDS011;18054;51.572;7.372;2024-01-30T05:48:42;22.27;;;8.88;;
31424;SDS011;18054;51.572;7.372;2024-01-30T05:51:10;15.25;;;7.65;;
31424;SDS011;18054;51.572;7.372;2024-01-30T05:56:06;15.50;;;6.85;;
31424;SDS011;18054;51.572;7.372;2024-01-30T05:58:34;25.80;;;7.82;;
31424;SDS011;18054;51.572;7.372;2024-01-30T06:01:06;12.52;;;7.05;;
31424;SDS011;18054;51.572;7.372;2024-01-30T06:03:34;16.30;;;6.60;;
31424;SDS011;18054;51.572;7.372;2024-01-30T06:06:02;16.60;;;7.45;;
31424;SDS011;18054;51.572;7.372;2024-01-30T06:08:29;14.85;;;6.97;;
31424;SDS011;18054;51.572;7.372;2024-01-30T06:10:57;15.93;;;6.82;;
31424;SDS011;18054;51.572;7.372;2024-01-30T06:13:25;14.05;;;6.20;;
31424;SDS011;18054;51.572;7.372;2024-01-30T06:15:53;18.20;;;8.07;;
31424;SDS011;18054;51.572;7.372;2024-01-30T06:18:21;24.95;;;7.85;;
31424;SDS011;18054;51.572;7.372;2024-01-30T06:20:48;15.07;;;6.60;;
31424;SDS011;18054;51.572;7.372;2024-01-30T06:23:16;20.17;;;6.93;;
31424;SDS011;18054;51.572;7.372;2024-01-30T06:25:44;12.60;;;6.78;;
31424;SDS011;18054;51.572;7.372;2024-01-30T06:28:11;15.25;;;6.93;;
31424;SDS011;18054;51.572;7.372;2024-01-30T06:30:40;14.70;;;6.93;;
31424;SDS011;18054;51.572;7.372;2024-01-30T06:33:08;16.33;;;7.20;;
31424;SDS011;18054;51.572;7.372;2024-01-30T06:35:35;21.77;;;7.03;;
31424;SDS011;18054;51.572;7.372;2024-01-30T06:38:10;15.70;;;6.80;;
31424;SDS011;18054;51.572;7.372;2024-01-30T06:40:37;15.98;;;7.38;;
31424;SDS011;18054;51.572;7.372;2024-01-30T06:43:05;20.88;;;7.43;;
31424;SDS011;18054;51.572;7.372;2024-01-30T06:45:34;17.08;;;6.70;;
31424;SDS011;18054;51.572;7.372;2024-01-30T06:48:03;15.75;;;7.32;;
31424;SDS011;18054;51.572;7.372;2024-01-30T06:50:31;12.63;;;6.55;;
31424;SDS011;18054;51.572;7.372;2024-01-30T06:55:26;18.83;;;7.10;;
31424;SDS011;18054;51.572;7.372;2024-01-30T06:57:54;13.13;;;5.85;;
31424;SDS011;18054;51.572;7.372;2024-01-30T07:00:21;12.70;;;6.53;;
31424;SDS011;18054;51.572;7.372;2024-01-30T07:02:50;20.08;;;6.20;;
31424;SDS011;18054;51.572;7.372;2024-01-30T07:05:19;17.05;;;6.30;;
31424;SDS011;18054;51.572;7.372;2024-01-30T07:07:48;17.23;;;6.63;;
31424;SDS011;18054;51.572;7.372;2024-01-30T07:10:15;13.43;;;6.40;;
31424;SDS011;18054;51.572;7.372;2024-01-30T07:12:43;21.05;;;6.80;;
31424;SDS011;18054;51.572;7.372;2024-01-30T07:15:11;18.10;;;5.95;;
31424;SDS011;18054;51.572;7.372;2024-01-30T07:17:41;12.80;;;6.72;;
31424;SDS011;18054;51.572;7.372;2024-01-30T07:20:09;12.52;;;6.70;;
31424;SDS011;18054;51.572;7.372;2024-01-30T07:22:44;12.20;;;6.00;;
31424;SDS011;18054;51.572;7.372;2024-01-30T07:25:12;12.80;;;6.47;;
31424;SDS011;18054;51.572;7.372;2024-01-30T07:27:40;16.48;;;6.03;;
31424;SDS011;18054;51.572;7.372;2024-01-30T07:30:08;15.05;;;6.43;;
31424;SDS011;18054;51.572;7.372;2024-01-30T07:32:35;9.65;;;5.43;;
31424;SDS011;18054;51.572;7.372;2024-01-30T07:37:33;14.43;;;5.63;;
31424;SDS011;18054;51.572;7.372;2024-01-30T07:40:03;18.58;;;6.47;;
31424;SDS011;18054;51.572;7.372;2024-01-30T07:42:32;15.32;;;6.65;;
31424;SDS011;18054;51.572;7.372;2024-01-30T07:47:28;12.93;;;5.65;;
31424;SDS011;18054;51.572;7.372;2024-01-30T07:49:56;10.70;;;5.55;;
31424;SDS011;18054;51.572;7.372;2024-01-30T07:52:23;15.15;;;6.43;;
31424;SDS011;18054;51.572;7.372;2024-01-30T07:54:51;13.45;;;5.55;;
31424;SDS011;18054;51.572;7.372;2024-01-30T07:57:21;13.45;;;6.40;;
31424;SDS011;18054;51.572;7.372;2024-01-30T07:59:48;10.48;;;6.18;;
31424;SDS011;18054;51.572;7.372;2024-01-30T08:02:16;11.32;;;6.15;;
31424;SDS011;18054;51.572;7.372;2024-01-30T08:07:15;16.20;;;5.82;;
31424;SDS011;18054;51.572;7.372;2024-01-30T08:09:44;11.20;;;5.85;;
31424;SDS011;18054;51.572;7.372;2024-01-30T08:14:41;14.45;;;6.32;;
31424;SDS011;18054;51.572;7.372;2024-01-30T08:17:09;15.48;;;6.78;;
31424;SDS011;18054;51.572;7.372;2024-01-30T08:19:36;16.23;;;6.20;;
31424;SDS011;18054;51.572;7.372;2024-01-30T08:22:04;10.70;;;5.75;;
31424;SDS011;18054;51.572;7.372;2024-01-30T08:24:32;16.13;;;6.88;;
31424;SDS011;18054;51.572;7.372;2024-01-30T08:27:00;11.93;;;5.85;;
31424;SDS011;18054;51.572;7.372;2024-01-30T08:29:29;11.52;;;5.13;;
31424;SDS011;18054;51.572;7.372;2024-01-30T08:31:58;13.63;;;6.25;;
31424;SDS011;18054;51.572;7.372;2024-01-30T08:34:26;17.23;;;5.80;;
31424;SDS011;18054;51.572;7.372;2024-01-30T08:36:54;15.95;;;5.75;;
31424;SDS011;18054;51.572;7.372;2024-01-30T08:39:22;11.30;;;6.22;;
31424;SDS011;18054;51.572;7.372;2024-01-30T08:41:50;14.05;;;5.20;;
31424;SDS011;18054;51.572;7.372;2024-01-30T08:44:17;11.57;;;5.80;;
31424;SDS011;18054;51.572;7.372;2024-01-30T08:46:45;10.85;;;5.72;;
31424;SDS011;18054;51.572;7.372;2024-01-30T08:49:15;18.10;;;9.10;;
31424;SDS011;18054;51.572;7.372;2024-01-30T08:51:43;16.58;;;7.80;;
31424;SDS011;18054;51.572;7.372;2024-01-30T08:54:11;15.70;;;7.18;;
31424;SDS011;18054;51.572;7.372;2024-01-30T08:56:39;14.50;;;6.38;;
31424;SDS011;18054;51.572;7.372;2024-01-30T08:59:07;14.95;;;5.80;;
31424;SDS011;18054;51.572;7.372;2024-01-30T09:01:37;14.07;;;5.70;;
31424;SDS011;18054;51.572;7.372;2024-01-30T09:04:07;14.75;;;6.03;;
31424;SDS011;18054;51.572;7.372;2024-01-30T09:09:07;13.90;;;6.22;;
31424;SDS011;18054;51.572;7.372;2024-01-30T09:11:35;12.70;;;6.35;;
31424;SDS011;18054;51.572;7.372;2024-01-30T09:14:03;14.55;;;6.20;;
31424;SDS011;18054;51.572;7.372;2024-01-30T09:16:31;14.70;;;6.20;;
31424;SDS011;18054;51.572;7.372;2024-01-30T09:18:59;21.08;;;7.20;;
31424;SDS011;18054;51.572;7.372;2024-01-30T09:21:26;18.75;;;5.82;;
31424;SDS011;18054;51.572;7.372;2024-01-30T09:23:54;11.68;;;6.13;;
31424;SDS011;18054;51.572;7.372;2024-01-30T09:26:23;13.70;;;5.72;;
31424;SDS011;18054;51.572;7.372;2024-01-30T09:28:52;14.32;;;5.70;;
31424;SDS011;18054;51.572;7.372;2024-01-30T09:31:20;14.65;;;6.32;;
31424;SDS011;18054;51.572;7.372;2024-01-30T09:36:17;12.63;;;5.50;;
31424;SDS011;18054;51.572;7.372;2024-01-30T09:38:46;15.52;;;6.00;;
31424;SDS011;18054;51.572;7.372;2024-01-30T09:41:14;13.80;;;7.90;;
31424;SDS011;18054;51.572;7.372;2024-01-30T09:43:45;23.83;;;7.72;;
31424;SDS011;18054;51.572;7.372;2024-01-30T09:46:16;14.93;;;6.28;;
31424;SDS011;18054;51.572;7.372;2024-01-30T09:48:45;16.10;;;6.50;;
31424;SDS011;18054;51.572;7.372;2024-01-30T09:51:13;16.38;;;5.70;;
31424;SDS011;18054;51.572;7.372;2024-01-30T09:53:42;9.13;;;5.03;;
31424;SDS011;18054;51.572;7.372;2024-01-30T09:56:10;13.77;;;5.80;;
31424;SDS011;18054;51.572;7.372;2024-01-30T09:58:39;14.52;;;5.88;;
31424;SDS011;18054;51.572;7.372;2024-01-30T10:01:09;12.80;;;5.82;;
31424;SDS011;18054;51.572;7.372;2024-01-30T10:03:37;12.82;;;4.65;;
31424;SDS011;18054;51.572;7.372;2024-01-30T10:06:05;12.43;;;4.82;;
31424;SDS011;18054;51.572;7.372;2024-01-30T10:08:33;19.10;;;4.43;;
31424;SDS011;18054;51.572;7.372;2024-01-30T10:11:01;10.05;;;4.85;;
31424;SDS011;18054;51.572;7.372;2024-01-30T10:13:30;18.88;;;5.38;;
31424;SDS011;18054;51.572;7.372;2024-01-30T10:15:58;10.30;;;4.97;;
31424;SDS011;18054;51.572;7.372;2024-01-30T10:20:54;18.45;;;5.07;;
31424;SDS011;18054;51.572;7.372;2024-01-30T10:23:22;11.93;;;4.93;;
31424;SDS011;18054;51.572;7.372;2024-01-30T10:25:50;12.35;;;5.15;;
31424;SDS011;18054;51.572;7.372;2024-01-30T10:28:18;12.43;;;5.63;;
31424;SDS011;18054;51.572;7.372;2024-01-30T10:30:46;9.15;;;5.13;;
31424;SDS011;18054;51.572;7.372;2024-01-30T10:33:14;12.70;;;4.80;;
31424;SDS011;18054;51.572;7.372;2024-01-30T10:35:42;12.05;;;4.03;;
31424;SDS011;18054;51.572;7.372;2024-01-30T10:40:38;20.33;;;5.50;;
31424;SDS011;18054;51.572;7.372;2024-01-30T10:43:06;12.48;;;5.30;;
31424;SDS011;18054;51.572;7.372;2024-01-30T10:45:37;14.05;;;4.68;;
31424;SDS011;18054;51.572;7.372;2024-01-30T10:48:06;13.18;;;4.63;;
31424;SDS011;18054;51.572;7.372;2024-01-30T10:50:36;14.57;;;5.38;;
31424;SDS011;18054;51.572;7.372;2024-01-30T10:53:16;9.90;;;5.07;;
31424;SDS011;18054;51.572;7.372;2024-01-30T10:55:46;11.23;;;4.93;;
31424;SDS011;18054;51.572;7.372;2024-01-30T10:58:14;12.80;;;5.75;;
31424;SDS011;18054;51.572;7.372;2024-01-30T11:03:10;15.02;;;4.93;;
31424;SDS011;18054;51.572;7.372;2024-01-30T11:05:40;14.52;;;4.80;;
31424;SDS011;18054;51.572;7.372;2024-01-30T11:08:11;18.90;;;4.53;;
31424;SDS011;18054;51.572;7.372;2024-01-30T11:10:47;11.15;;;4.50;;
31424;SDS011;18054;51.572;7.372;2024-01-30T11:13:15;8.50;;;4.50;;
31424;SDS011;18054;51.572;7.372;2024-01-30T11:15:43;11.73;;;4.22;;
31424;SDS011;18054;51.572;7.372;2024-01-30T11:18:11;8.73;;;4.32;;
31424;SDS011;18054;51.572;7.372;2024-01-30T11:23:11;11.20;;;5.00;;
31424;SDS011;18054;51.572;7.372;2024-01-30T11:25:39;11.32;;;4.40;;
31424;SDS011;18054;51.572;7.372;2024-01-30T11:28:14;10.65;;;4.72;;
31424;SDS011;18054;51.572;7.372;2024-01-30T11:30:42;13.65;;;4.65;;
31424;SDS011;18054;51.572;7.372;2024-01-30T11:33:10;12.35;;;5.03;;
31424;SDS011;18054;51.572;7.372;2024-01-30T11:35:39;15.32;;;4.93;;
31424;SDS011;18054;51.572;7.372;2024-01-30T11:38:08;18.27;;;4.70;;
31424;SDS011;18054;51.572;7.372;2024-01-30T11:40:36;19.75;;;5.18;;
31424;SDS011;18054;51.572;7.372;2024-01-30T11:43:05;15.15;;;4.30;;
31424;SDS011;18054;51.572;7.372;2024-01-30T11:45:35;11.73;;;4.63;;
31424;SDS011;18054;51.572;7.372;2024-01-30T11:48:03;11.77;;;4.55;;
31424;SDS011;18054;51.572;7.372;2024-01-30T11:50:32;11.52;;;4.20;;
31424;SDS011;18054;51.572;7.372;2024-01-30T11:53:03;10.50;;;5.32;;
31424;SDS011;18054;51.572;7.372;2024-01-30T11:55:31;21.80;;;4.78;;
31424;SDS011;18054;51.572;7.372;2024-01-30T11:58:01;11.95;;;5.13;;
31424;SDS011;18054;51.572;7.372;2024-01-30T12:00:29;18.10;;;4.80;;
31424;SDS011;18054;51.572;7.372;2024-01-30T12:03:01;15.57;;;5.40;;
31424;SDS011;18054;51.572;7.372;2024-01-30T12:05:30;14.23;;;4.88;;
31424;SDS011;18054;51.572;7.372;2024-01-30T12:07:58;11.05;;;4.97;;
31424;SDS011;18054;51.572;7.372;2024-01-30T12:10:27;13.10;;;5.13;;
31424;SDS011;18054;51.572;7.372;2024-01-30T12:12:56;15.85;;;5.28;;
31424;SDS011;18054;51.572;7.372;2024-01-30T12:15:25;12.60;;;5.47;;
31424;SDS011;18054;51.572;7.372;2024-01-30T12:18:03;19.30;;;4.80;;
31424;SDS011;18054;51.572;7.372;2024-01-30T12:20:32;17.95;;;7.63;;
31424;SDS011;18054;51.572;7.372;2024-01-30T12:23:00;21.30;;;5.88;;
31424;SDS011;18054;51.572;7.372;2024-01-30T12:25:28;13.70;;;4.82;;
31424;SDS011;18054;51.572;7.372;2024-01-30T12:27:55;17.30;;;5.10;;
31424;SDS011;18054;51.572;7.372;2024-01-30T12:30:24;16.48;;;5.53;;
31424;SDS011;18054;51.572;7.372;2024-01-30T12:32:51;12.02;;;5.82;;
31424;SDS011;18054;51.572;7.372;2024-01-30T12:35:19;14.82;;;5.70;;
31424;SDS011;18054;51.572;7.372;2024-01-30T12:37:49;13.82;;;5.03;;
31424;SDS011;18054;51.572;7.372;2024-01-30T12:40:17;16.35;;;5.60;;
31424;SDS011;18054;51.572;7.372;2024-01-30T12:42:46;15.15;;;5.60;;
31424;SDS011;18054;51.572;7.372;2024-01-30T12:45:15;13.02;;;5.97;;
31424;SDS011;18054;51.572;7.372;2024-01-30T12:47:47;19.67;;;5.20;;
31424;SDS011;18054;51.572;7.372;2024-01-30T12:50:14;17.27;;;5.65;;
31424;SDS011;18054;51.572;7.372;2024-01-30T12:52:43;16.92;;;6.30;;
31424;SDS011;18054;51.572;7.372;2024-01-30T12:55:16;17.38;;;6.35;;
31424;SDS011;18054;51.572;7.372;2024-01-30T12:57:45;19.00;;;7.82;;
31424;SDS011;18054;51.572;7.372;2024-01-30T13:02:40;15.43;;;6.07;;
31424;SDS011;18054;51.572;7.372;2024-01-30T13:05:09;15.15;;;5.63;;
31424;SDS011;18054;51.572;7.372;2024-01-30T13:07:37;14.57;;;5.85;;
31424;SDS011;18054;51.572;7.372;2024-01-30T13:10:05;24.52;;;6.30;;
31424;SDS011;18054;51.572;7.372;2024-01-30T13:15:02;17.67;;;5.10;;
31424;SDS011;18054;51.572;7.372;2024-01-30T13:17:31;15.23;;;5.65;;
31424;SDS011;18054;51.572;7.372;2024-01-30T13:19:59;12.30;;;5.28;;
31424;SDS011;18054;51.572;7.372;2024-01-30T13:22:36;18.88;;;6.53;;
31424;SDS011;18054;51.572;7.372;2024-01-30T13:25:05;15.65;;;7.00;;
31424;SDS011;18054;51.572;7.372;2024-01-30T13:27:33;13.60;;;6.38;;
31424;SDS011;18054;51.572;7.372;2024-01-30T13:30:02;14.15;;;5.53;;
31424;SDS011;18054;51.572;7.372;2024-01-30T13:32:30;18.27;;;6.40;;
31424;SDS011;18054;51.572;7.372;2024-01-30T13:34:58;18.33;;;5.75;;
31424;SDS011;18054;51.572;7.372;2024-01-30T13:37:26;13.95;;;5.60;;
31424;SDS011;18054;51.572;7.372;2024-01-30T13:39:54;15.35;;;5.60;;
31424;SDS011;18054;51.572;7.372;2024-01-30T13:42:21;24.33;;;6.28;;
31424;SDS011;18054;51.572;7.372;2024-01-30T13:47:18;14.82;;;5.65;;
31424;SDS011;18054;51.572;7.372;2024-01-30T13:49:48;18.65;;;6.80;;
31424;SDS011;18054;51.572;7.372;2024-01-30T13:54:46;19.25;;;6.20;;
31424;SDS011;18054;51.572;7.372;2024-01-30T13:57:14;15.77;;;6.18;;
31424;SDS011;18054;51.572;7.372;2024-01-30T14:02:09;17.13;;;5.95;;
31424;SDS011;18054;51.572;7.372;2024-01-30T14:07:06;18.25;;;8.13;;
31424;SDS011;18054;51.572;7.372;2024-01-30T14:09:34;22.77;;;7.40;;
31424;SDS011;18054;51.572;7.372;2024-01-30T14:12:02;25.13;;;7.28;;
31424;SDS011;18054;51.572;7.372;2024-01-30T14:14:30;22.05;;;7.55;;
31424;SDS011;18054;51.572;7.372;2024-01-30T14:16:58;14.98;;;6.60;;
31424;SDS011;18054;51.572;7.372;2024-01-30T14:19:26;23.75;;;7.55;;
31424;SDS011;18054;51.572;7.372;2024-01-30T14:21:53;20.52;;;6.82;;
31424;SDS011;18054;51.572;7.372;2024-01-30T14:24:22;13.80;;;6.82;;
31424;SDS011;18054;51.572;7.372;2024-01-30T14:26:50;11.68;;;6.35;;
31424;SDS011;18054;51.572;7.372;2024-01-30T14:34:13;15.88;;;6.75;;
31424;SDS011;18054;51.572;7.372;2024-01-30T14:36:41;14.77;;;6.72;;
31424;SDS011;18054;51.572;7.372;2024-01-30T14:39:08;21.02;;;6.50;;
31424;SDS011;18054;51.572;7.372;2024-01-30T14:41:38;15.55;;;7.05;;
31424;SDS011;18054;51.572;7.372;2024-01-30T14:44:05;15.20;;;6.72;;
31424;SDS011;18054;51.572;7.372;2024-01-30T14:46:34;22.20;;;6.57;;
31424;SDS011;18054;51.572;7.372;2024-01-30T14:51:32;16.80;;;6.18;;
31424;SDS011;18054;51.572;7.372;2024-01-30T14:56:27;15.82;;;6.15;;
31424;SDS011;18054;51.572;7.372;2024-01-30T15:01:24;12.68;;;6.22;;
31424;SDS011;18054;51.572;7.372;2024-01-30T15:03:51;17.15;;;6.00;;
31424;SDS011;18054;51.572;7.372;2024-01-30T15:06:19;20.92;;;8.57;;
31424;SDS011;18054;51.572;7.372;2024-01-30T15:08:49;14.88;;;6.22;;
31424;SDS011;18054;51.572;7.372;2024-01-30T15:11:16;25.58;;;6.85;;
31424;SDS011;18054;51.572;7.372;2024-01-30T15:13:44;19.33;;;7.28;;
31424;SDS011;18054;51.572;7.372;2024-01-30T15:16:12;13.38;;;6.63;;
31424;SDS011;18054;51.572;7.372;2024-01-30T15:18:41;19.15;;;6.85;;
31424;SDS011;18054;51.572;7.372;2024-01-30T15:21:09;21.77;;;7.80;;
31424;SDS011;18054;51.572;7.372;2024-01-30T15:23:36;14.48;;;7.40;;
31424;SDS011;18054;51.572;7.372;2024-01-30T15:26:04;16.88;;;8.02;;
31424;SDS011;18054;51.572;7.372;2024-01-30T15:28:35;15.23;;;6.53;;
31424;SDS011;18054;51.572;7.372;2024-01-30T15:31:04;18.67;;;6.57;;
31424;SDS011;18054;51.572;7.372;2024-01-30T15:33:32;23.90;;;8.00;;
31424;SDS011;18054;51.572;7.372;2024-01-30T15:36:02;12.25;;;6.15;;
31424;SDS011;18054;51.572;7.372;2024-01-30T15:38:29;16.13;;;6.07;;
31424;SDS011;18054;51.572;7.372;2024-01-30T15:43:25;18.75;;;6.60;;
31424;SDS011;18054;51.572;7.372;2024-01-30T15:45:53;20.30;;;5.90;;
31424;SDS011;18054;51.572;7.372;2024-01-30T15:50:48;11.57;;;4.95;;
31424;SDS011;18054;51.572;7.372;2024-01-30T15:53:19;15.68;;;5.28;;
31424;SDS011;18054;51.572;7.372;2024-01-30T15:55:47;15.60;;;5.68;;
31424;SDS011;18054;51.572;7.372;2024-01-30T15:58:15;17.08;;;5.95;;
31424;SDS011;18054;51.572;7.372;2024-01-30T16:00:43;12.25;;;4.47;;
31424;SDS011;18054;51.572;7.372;2024-01-30T16:03:10;15.40;;;5.28;;
31424;SDS011;18054;51.572;7.372;2024-01-30T16:05:38;10.98;;;4.07;;